createdAt,value
2018-07-03T00:00:18.111Z,37.90
2018-07-03T00:02:46.521Z,38.10
2018-07-03T00:05:14.912Z,38.50
2018-07-03T00:07:43.330Z,38.70
2018-07-03T00:10:12.322Z,39.00
2018-07-03T00:12:40.735Z,39.80
2018-07-03T00:15:09.162Z,40.10
2018-07-03T00:17:37.637Z,40.60
2018-07-03T00:20:07.101Z,41.00
2018-07-03T00:22:35.494Z,41.70
2018-07-03T00:25:03.956Z,42.30
2018-07-03T00:27:32.621Z,42.40
2018-07-03T00:30:01.005Z,42.90
2018-07-03T00:32:30.274Z,43.70
2018-07-03T00:34:58.738Z,44.20
2018-07-03T00:37:27.127Z,44.50
2018-07-03T00:39:56.157Z,45.10
2018-07-03T00:42:24.543Z,45.40
2018-07-03T00:44:52.930Z,45.70
2018-07-03T00:47:21.446Z,46.00
2018-07-03T00:49:49.845Z,46.40
2018-07-03T00:52:18.240Z,47.00
2018-07-03T00:54:46.653Z,47.20
2018-07-03T00:59:54.334Z,47.80
2018-07-03T01:02:22.806Z,48.50
2018-07-03T01:04:51.189Z,48.70
2018-07-03T01:07:19.610Z,48.70
2018-07-03T01:09:48.021Z,49.30
2018-07-03T01:12:16.379Z,50.20
2018-07-03T01:14:44.777Z,49.70
2018-07-03T01:17:13.223Z,49.80
2018-07-03T01:19:41.586Z,50.10
2018-07-03T01:22:09.963Z,50.30
2018-07-03T01:24:38.498Z,50.50
2018-07-03T01:27:06.918Z,50.60
2018-07-03T01:29:35.371Z,50.70
2018-07-03T01:34:32.038Z,50.90
2018-07-03T01:37:00.472Z,51.30
2018-07-03T01:39:28.831Z,51.20
2018-07-03T01:41:57.202Z,51.60
2018-07-03T01:44:25.582Z,52.10
2018-07-03T01:46:53.962Z,52.00
2018-07-03T01:49:22.338Z,52.00
2018-07-03T01:51:50.754Z,52.10
2018-07-03T01:54:19.102Z,52.30
2018-07-03T01:56:47.550Z,52.30
2018-07-03T01:59:15.909Z,52.70
2018-07-03T02:01:44.341Z,52.90
2018-07-03T02:04:13.066Z,52.80
2018-07-03T02:06:41.648Z,53.00
2018-07-03T02:09:12.585Z,53.00
2018-07-03T02:11:41.981Z,53.30
2018-07-03T02:14:10.357Z,53.60
2018-07-03T02:16:38.814Z,53.50
2018-07-03T02:19:07.417Z,53.50
2018-07-03T02:21:35.877Z,53.70
2018-07-03T02:24:04.686Z,53.80
2018-07-03T02:26:33.077Z,54.40
2018-07-03T02:29:01.453Z,53.70
2018-07-03T02:31:29.893Z,53.90
2018-07-03T02:33:58.390Z,54.00
2018-07-03T02:36:26.776Z,54.10
2018-07-03T02:38:55.182Z,54.10
2018-07-03T02:41:23.663Z,54.10
2018-07-03T02:43:52.711Z,54.40
2018-07-03T02:46:21.149Z,54.60
2018-07-03T02:48:49.563Z,54.70
2018-07-03T02:51:17.951Z,55.00
2018-07-03T02:53:46.384Z,54.80
2018-07-03T02:56:14.790Z,55.50
2018-07-03T03:03:39.493Z,55.30
2018-07-03T03:06:07.910Z,55.20
2018-07-03T03:08:36.282Z,55.40
2018-07-03T03:11:04.734Z,55.30
2018-07-03T03:13:33.137Z,55.40
2018-07-03T03:16:01.492Z,55.50
2018-07-03T03:18:29.870Z,55.50
2018-07-03T03:20:58.232Z,55.80
2018-07-03T03:23:26.719Z,55.60
2018-07-03T03:25:55.150Z,55.70
2018-07-03T03:28:23.566Z,55.90
2018-07-03T03:30:51.957Z,55.70
2018-07-03T03:33:20.569Z,55.90
2018-07-03T03:35:48.997Z,55.90
2018-07-03T03:38:17.364Z,56.20
2018-07-03T03:40:45.737Z,56.20
2018-07-03T03:43:14.237Z,56.40
2018-07-03T03:45:42.679Z,56.10
2018-07-03T03:48:11.088Z,56.20
2018-07-03T03:50:39.463Z,56.10
2018-07-03T03:53:07.877Z,56.10
2018-07-03T03:55:36.249Z,56.60
2018-07-03T04:00:33.009Z,56.90
2018-07-03T04:03:01.409Z,57.10
2018-07-03T04:05:32.333Z,56.90
2018-07-03T04:08:00.786Z,57.30
2018-07-03T04:10:29.161Z,57.20
2018-07-03T04:12:57.558Z,57.10
2018-07-03T04:15:25.922Z,57.10
2018-07-03T04:17:55.083Z,57.30
2018-07-03T04:20:23.493Z,57.40
2018-07-03T04:22:51.833Z,57.80
2018-07-03T04:25:20.313Z,57.30
2018-07-03T04:27:48.662Z,57.50
2018-07-03T04:30:17.029Z,57.70
2018-07-03T04:32:45.423Z,57.70
2018-07-03T04:35:13.785Z,57.90
2018-07-03T04:37:42.170Z,57.90
2018-07-03T04:40:10.593Z,57.90
2018-07-03T04:42:39.042Z,57.90
2018-07-03T04:45:07.526Z,58.30
2018-07-03T04:50:04.038Z,58.20
2018-07-03T04:52:32.398Z,58.40
2018-07-03T04:55:00.793Z,57.80
2018-07-03T04:57:29.298Z,58.10
2018-07-03T04:59:57.689Z,58.30
2018-07-03T05:02:26.045Z,58.10
2018-07-03T05:04:54.476Z,58.30
2018-07-03T05:07:22.857Z,58.30
2018-07-03T05:09:51.306Z,58.10
2018-07-03T05:12:19.710Z,58.40
2018-07-03T05:14:48.153Z,58.50
2018-07-03T05:17:16.517Z,58.20
2018-07-03T05:19:44.899Z,58.10
2018-07-03T05:22:13.279Z,58.60
2018-07-03T05:24:41.710Z,58.40
2018-07-03T05:27:10.082Z,58.40
2018-07-03T05:29:38.497Z,58.00
2018-07-03T05:32:06.883Z,58.60
2018-07-03T05:34:35.330Z,57.90
2018-07-03T05:37:03.705Z,58.40
2018-07-03T05:39:32.110Z,58.10
2018-07-03T05:42:00.547Z,57.90
2018-07-03T05:44:28.929Z,57.30
2018-07-03T05:46:57.350Z,57.40
2018-07-03T05:49:25.753Z,57.50
2018-07-03T05:51:54.207Z,57.10
2018-07-03T05:54:22.815Z,56.80
2018-07-03T05:56:51.145Z,56.70
2018-07-03T05:59:19.648Z,56.90
2018-07-03T06:01:48.058Z,56.70
2018-07-03T06:04:16.509Z,56.60
2018-07-03T06:06:44.946Z,56.60
2018-07-03T06:09:13.404Z,55.70
2018-07-03T06:11:41.798Z,55.40
2018-07-03T06:14:10.183Z,55.50
2018-07-03T06:16:38.625Z,55.20
2018-07-03T06:19:07.821Z,54.40
2018-07-03T06:24:04.425Z,53.40
2018-07-03T06:26:32.889Z,53.20
2018-07-03T06:29:01.375Z,52.90
2018-07-03T06:31:29.820Z,52.00
2018-07-03T06:33:58.691Z,52.00
2018-07-03T06:36:28.147Z,50.70
2018-07-03T06:38:56.538Z,50.10
2018-07-03T06:41:24.945Z,49.90
2018-07-03T06:43:53.393Z,49.20
2018-07-03T06:46:21.798Z,48.50
2018-07-03T06:48:50.358Z,48.00
2018-07-03T06:51:18.798Z,47.50
2018-07-03T06:53:47.215Z,47.30
2018-07-03T06:56:15.595Z,46.10
2018-07-03T06:58:44.029Z,45.70
2018-07-03T07:01:12.382Z,45.10
2018-07-03T07:03:40.751Z,44.50
2018-07-03T07:06:09.179Z,44.40
2018-07-03T07:08:37.586Z,45.40
2018-07-03T07:13:34.131Z,44.50
2018-07-03T07:16:02.581Z,45.10
2018-07-03T07:18:30.966Z,43.10
2018-07-03T07:20:59.372Z,43.40
2018-07-03T07:23:27.831Z,42.50
2018-07-03T07:25:56.241Z,42.20
2018-07-03T07:28:24.616Z,41.80
2018-07-03T07:33:21.106Z,40.80
2018-07-03T07:35:49.476Z,40.70
2018-07-03T07:38:17.940Z,39.60
2018-07-03T07:40:46.417Z,39.30
2018-07-03T07:43:14.788Z,39.70
2018-07-03T07:45:43.333Z,38.30
2018-07-03T07:48:12.387Z,38.10
2018-07-03T07:50:40.793Z,38.50
2018-07-03T07:53:09.273Z,38.80
2018-07-03T07:55:37.837Z,37.40
2018-07-03T07:58:06.230Z,36.30
2018-07-03T08:00:34.636Z,36.60
2018-07-03T08:03:03.114Z,36.30
2018-07-03T08:05:31.534Z,35.50
2018-07-03T08:07:59.928Z,35.80
2018-07-03T08:10:28.277Z,34.90
2018-07-03T08:12:56.677Z,36.80
2018-07-03T08:15:25.201Z,35.40
2018-07-03T08:17:53.562Z,34.90
2018-07-03T08:20:21.921Z,34.30
2018-07-03T08:22:50.317Z,33.80
2018-07-03T08:25:18.806Z,33.20
2018-07-03T08:27:47.217Z,34.00
2018-07-03T08:30:15.623Z,33.20
2018-07-03T08:32:44.020Z,33.30
2018-07-03T08:35:13.010Z,31.60
2018-07-03T08:37:41.390Z,30.60
2018-07-03T08:40:09.801Z,32.50
2018-07-03T08:45:07.170Z,31.20
2018-07-03T08:47:36.169Z,30.00
2018-07-03T08:50:04.799Z,30.00
2018-07-03T08:52:33.205Z,29.80
2018-07-03T08:55:01.615Z,29.30
2018-07-03T08:57:29.994Z,29.20
2018-07-03T08:59:58.344Z,29.00
2018-07-03T09:02:26.745Z,28.10
2018-07-03T09:04:55.122Z,28.10
2018-07-03T09:07:23.556Z,28.20
2018-07-03T09:09:51.893Z,30.30
2018-07-03T09:14:48.404Z,28.50
2018-07-03T09:17:22.089Z,28.00
2018-07-03T09:19:50.445Z,27.50
2018-07-03T09:22:18.981Z,26.60
2018-07-03T09:24:47.505Z,26.90
2018-07-03T09:27:15.923Z,27.60
2018-07-03T09:29:44.311Z,28.50
2018-07-03T09:32:12.698Z,28.60
2018-07-03T09:34:41.229Z,29.60
2018-07-03T09:39:37.801Z,27.90
2018-07-03T09:42:06.252Z,27.80
2018-07-03T09:44:34.614Z,26.50
2018-07-03T09:47:03.039Z,26.20
2018-07-03T09:49:31.494Z,27.30
2018-07-03T09:51:59.886Z,27.10
2018-07-03T09:54:28.300Z,28.10
2018-07-03T09:56:56.703Z,27.10
2018-07-03T09:59:25.106Z,29.00
2018-07-03T10:01:53.656Z,27.40
2018-07-03T10:04:22.093Z,26.80
2018-07-03T10:06:50.581Z,27.30
2018-07-03T10:09:19.005Z,26.90
2018-07-03T10:11:47.445Z,27.20
2018-07-03T10:14:15.910Z,26.70
2018-07-03T10:16:44.319Z,27.50
2018-07-03T10:19:12.702Z,26.80
2018-07-03T10:21:41.220Z,26.90
2018-07-03T10:24:09.671Z,27.90
2018-07-03T10:26:38.200Z,26.80
2018-07-03T10:29:06.581Z,26.50
2018-07-03T10:31:34.966Z,26.30
2018-07-03T10:34:03.424Z,25.90
2018-07-03T10:36:31.898Z,26.50
2018-07-03T10:39:00.271Z,26.60
2018-07-03T10:41:28.701Z,26.00
2018-07-03T10:43:57.158Z,26.20
2018-07-03T10:46:25.659Z,25.70
2018-07-03T10:48:54.125Z,26.40
2018-07-03T10:51:22.530Z,27.30
2018-07-03T10:53:50.946Z,24.60
2018-07-03T10:56:19.340Z,24.90
2018-07-03T10:58:47.797Z,25.50
2018-07-03T11:01:16.314Z,26.10
2018-07-03T11:03:44.712Z,24.40
2018-07-03T11:06:13.103Z,24.70
2018-07-03T11:08:41.468Z,24.30
2018-07-03T11:11:10.005Z,25.40
2018-07-03T11:13:38.481Z,25.20
2018-07-03T11:16:07.140Z,24.10
2018-07-03T11:18:35.594Z,25.40
2018-07-03T11:21:04.014Z,25.00
2018-07-03T11:23:32.381Z,24.20
2018-07-03T11:26:00.784Z,24.10
2018-07-03T11:28:29.250Z,24.40
2018-07-03T11:30:57.677Z,23.60
2018-07-03T11:33:26.113Z,24.50
2018-07-03T11:35:54.526Z,24.50
2018-07-03T11:38:22.975Z,24.60
2018-07-03T11:40:51.367Z,24.90
2018-07-03T11:43:19.762Z,24.10
2018-07-03T11:50:44.456Z,25.10
2018-07-03T11:53:12.865Z,23.90
2018-07-03T11:55:41.373Z,23.20
2018-07-03T12:00:37.946Z,23.90
2018-07-03T12:03:06.441Z,23.20
2018-07-03T12:05:34.968Z,24.10
2018-07-03T12:08:03.365Z,22.50
2018-07-03T12:10:31.714Z,22.90
2018-07-03T12:13:00.117Z,23.60
2018-07-03T12:15:28.527Z,23.40
2018-07-03T12:17:56.941Z,22.90
2018-07-03T12:20:25.337Z,22.80
2018-07-03T12:22:53.817Z,23.60
2018-07-03T12:25:22.224Z,22.80
2018-07-03T12:27:50.628Z,23.00
2018-07-03T12:30:19.087Z,23.00
2018-07-03T12:32:47.545Z,23.10
2018-07-03T12:35:15.961Z,23.60
2018-07-03T12:37:44.429Z,23.90
2018-07-03T12:40:12.809Z,23.90
2018-07-03T12:42:41.245Z,24.40
2018-07-03T12:45:09.614Z,22.80
2018-07-03T12:47:38.032Z,24.60
2018-07-03T12:50:06.450Z,22.50
2018-07-03T12:52:34.849Z,23.40
2018-07-03T12:55:03.338Z,23.30
2018-07-03T12:57:31.748Z,23.30
2018-07-03T13:00:00.147Z,22.70
2018-07-03T13:02:28.519Z,22.60
2018-07-03T13:04:56.942Z,24.20
2018-07-03T13:07:25.436Z,24.40
2018-07-03T13:09:53.865Z,23.90
2018-07-03T13:12:22.280Z,22.60
2018-07-03T13:14:50.701Z,23.30
2018-07-03T13:17:19.090Z,23.50
2018-07-03T13:19:47.537Z,23.10
2018-07-03T13:22:15.931Z,23.10
2018-07-03T13:24:44.369Z,22.30
2018-07-03T13:27:12.762Z,22.80
2018-07-03T13:29:41.176Z,22.90
2018-07-03T13:32:09.740Z,22.60
2018-07-03T13:37:07.188Z,23.30
2018-07-03T13:39:35.649Z,22.20
2018-07-03T13:42:04.137Z,22.60
2018-07-03T13:44:32.550Z,24.70
2018-07-03T13:47:00.976Z,23.70
2018-07-03T13:49:29.373Z,24.40
2018-07-03T13:51:57.880Z,25.10
2018-07-03T13:54:26.323Z,25.00
2018-07-03T13:56:54.681Z,24.30
2018-07-03T13:59:23.148Z,24.60
2018-07-03T14:01:51.508Z,22.90
2018-07-03T14:04:19.964Z,22.90
2018-07-03T14:06:48.346Z,22.70
2018-07-03T14:09:16.770Z,22.80
2018-07-03T14:11:45.193Z,23.20
2018-07-03T14:14:13.582Z,22.70
2018-07-03T14:16:42.059Z,22.90
2018-07-03T14:19:10.490Z,23.00
2018-07-03T14:21:38.895Z,23.20
2018-07-03T14:24:07.289Z,23.50
2018-07-03T14:26:35.677Z,24.60
2018-07-03T14:29:04.084Z,23.10
2018-07-03T14:31:32.463Z,23.10
2018-07-03T14:34:00.823Z,24.00
2018-07-03T14:36:29.290Z,24.30
2018-07-03T14:38:57.697Z,23.90
2018-07-03T14:41:26.093Z,24.20
2018-07-03T14:43:54.694Z,24.90
2018-07-03T14:46:23.185Z,24.60
2018-07-03T14:48:51.616Z,23.50
2018-07-03T14:51:19.984Z,23.80
2018-07-03T14:53:48.437Z,23.80
2018-07-03T14:56:16.882Z,24.70
2018-07-03T14:58:45.280Z,23.80
2018-07-03T15:01:13.792Z,23.90
2018-07-03T15:03:42.272Z,23.80
2018-07-03T15:06:10.704Z,23.50
2018-07-03T15:08:39.117Z,24.00
2018-07-03T15:11:07.597Z,25.80
2018-07-03T15:13:36.078Z,24.30
2018-07-03T15:16:04.532Z,25.50
2018-07-03T15:18:38.165Z,24.10
2018-07-03T15:21:07.247Z,24.90
2018-07-03T15:23:35.641Z,24.80
2018-07-03T15:26:04.062Z,25.10
2018-07-03T15:28:32.458Z,25.20
2018-07-03T15:31:01.105Z,26.10
2018-07-03T15:33:29.685Z,25.40
2018-07-03T15:35:58.077Z,26.20
2018-07-03T15:38:26.516Z,25.60
2018-07-03T15:40:54.965Z,25.80
2018-07-03T15:43:23.644Z,27.20
2018-07-03T15:45:52.081Z,26.30
2018-07-03T15:48:20.569Z,26.50
2018-07-03T15:50:49.012Z,25.50
2018-07-03T15:53:17.541Z,26.20
2018-07-03T15:55:46.005Z,27.00
2018-07-03T15:58:14.406Z,25.00
2018-07-03T16:00:42.933Z,25.50
2018-07-03T16:03:22.568Z,26.10
2018-07-03T16:07:02.890Z,26.10
2018-07-03T16:09:31.369Z,26.20
2018-07-03T16:11:59.793Z,26.20
2018-07-03T16:14:28.204Z,26.50
2018-07-03T16:16:56.640Z,27.30
2018-07-03T16:19:30.437Z,26.30
2018-07-03T16:21:58.898Z,26.00
2018-07-03T16:24:27.256Z,26.60
2018-07-03T16:26:55.709Z,26.40
2018-07-03T16:29:24.133Z,27.20
2018-07-03T16:31:52.532Z,27.50
2018-07-03T16:34:20.987Z,27.70
2018-07-03T16:36:49.460Z,27.10
2018-07-03T16:39:17.966Z,27.20
2018-07-03T16:41:46.340Z,27.30
2018-07-03T16:44:14.822Z,27.40
2018-07-03T16:46:43.274Z,27.80
2018-07-03T16:49:11.754Z,28.20
2018-07-03T16:51:40.163Z,27.90
2018-07-03T16:54:08.569Z,28.10
2018-07-03T16:56:37.027Z,27.90
2018-07-03T16:59:06.063Z,27.70
2018-07-03T17:01:34.491Z,28.40
2018-07-03T17:04:03.496Z,28.50
2018-07-03T17:06:31.902Z,27.70
2018-07-03T17:09:00.333Z,28.50
2018-07-03T17:11:28.779Z,27.90
2018-07-03T17:13:57.356Z,27.60
2018-07-03T17:16:25.578Z,28.20
2018-07-03T17:18:59.480Z,28.30
2018-07-03T17:21:27.905Z,28.50
2018-07-03T17:23:56.345Z,28.40
2018-07-03T17:26:24.696Z,28.50
2018-07-03T17:31:21.164Z,28.60
2018-07-03T17:33:50.153Z,28.50
2018-07-03T17:36:18.533Z,28.50
2018-07-03T17:38:47.054Z,28.40
2018-07-03T17:41:26.710Z,29.00
2018-07-03T17:44:11.748Z,29.00
2018-07-03T17:46:40.114Z,28.40
2018-07-03T17:49:09.393Z,29.40
2018-07-03T17:51:37.817Z,29.20
2018-07-03T17:54:06.386Z,29.20
2018-07-03T17:56:34.962Z,29.50
2018-07-03T17:59:03.397Z,29.30
2018-07-03T18:01:31.824Z,29.10
2018-07-03T18:04:00.241Z,30.00
2018-07-03T18:06:28.634Z,29.30
2018-07-03T18:08:57.785Z,30.00
2018-07-03T18:11:26.192Z,30.30
2018-07-03T18:13:54.630Z,30.00
2018-07-03T18:16:23.036Z,30.20
2018-07-03T18:18:56.701Z,30.60
2018-07-03T18:21:25.174Z,30.50
2018-07-03T18:23:53.577Z,30.50
2018-07-03T18:26:21.956Z,31.10
2018-07-03T18:28:50.438Z,30.40
2018-07-03T18:31:18.822Z,30.80
2018-07-03T18:33:47.186Z,30.30
2018-07-03T18:36:15.602Z,30.30
2018-07-03T18:38:44.034Z,31.00
2018-07-03T18:41:12.549Z,30.70
2018-07-03T18:43:41.026Z,30.40
2018-07-03T18:46:09.476Z,30.80
2018-07-03T18:48:37.893Z,30.40
2018-07-03T18:51:06.313Z,30.10
2018-07-03T18:53:34.749Z,30.30
2018-07-03T18:56:03.705Z,30.00
2018-07-03T18:58:32.514Z,30.40
2018-07-03T19:01:01.018Z,30.60
2018-07-03T19:03:29.446Z,30.60
2018-07-03T19:05:57.969Z,30.60
2018-07-03T19:08:26.433Z,31.00
2018-07-03T19:10:54.802Z,30.80
2018-07-03T19:13:23.213Z,30.50
2018-07-03T19:15:51.613Z,30.90
2018-07-03T19:18:20.077Z,31.10
2018-07-03T19:20:48.534Z,31.30
2018-07-03T19:23:16.942Z,31.60
2018-07-03T19:25:45.352Z,32.30
2018-07-03T19:28:13.820Z,32.10
2018-07-03T19:30:42.360Z,33.00
2018-07-03T19:33:10.774Z,34.40
2018-07-03T19:35:39.118Z,34.50
2018-07-03T19:38:07.561Z,35.20
2018-07-03T19:43:21.726Z,36.20
2018-07-03T19:45:51.393Z,36.80
2018-07-03T19:48:19.853Z,37.10
2018-07-03T19:50:49.633Z,37.50
2018-07-03T19:53:17.981Z,37.90
2018-07-03T19:55:47.378Z,37.70
2018-07-03T19:58:15.973Z,38.10
2018-07-03T20:00:44.473Z,38.70
2018-07-03T20:05:40.974Z,39.70
2018-07-03T20:08:09.405Z,39.50
2018-07-03T20:10:38.489Z,39.70
2018-07-03T20:13:08.650Z,40.10
2018-07-03T20:15:37.452Z,40.50
2018-07-03T20:18:06.427Z,48.20
2018-07-03T20:20:34.877Z,40.70
2018-07-03T20:23:04.215Z,41.40
2018-07-03T20:25:32.733Z,41.40
2018-07-03T20:28:01.569Z,41.90
2018-07-03T20:30:30.007Z,42.10
2018-07-03T20:32:58.558Z,42.90
2018-07-03T20:35:26.935Z,42.40
2018-07-03T20:37:56.545Z,42.50
2018-07-03T20:40:25.576Z,43.10
2018-07-03T20:42:57.373Z,43.40
2018-07-03T20:45:26.150Z,43.70
2018-07-03T20:47:54.520Z,44.50
2018-07-03T20:50:22.904Z,44.20
2018-07-03T20:52:51.297Z,44.60
2018-07-03T20:55:19.677Z,44.70
2018-07-03T20:57:48.062Z,45.20
2018-07-03T21:00:16.431Z,45.30
2018-07-03T21:02:44.789Z,45.10
2018-07-03T21:05:13.169Z,45.30
2018-07-03T21:07:41.646Z,46.00
2018-07-03T21:10:10.020Z,46.10
2018-07-03T21:12:38.506Z,46.50
2018-07-03T21:15:06.908Z,46.50
2018-07-03T21:17:35.340Z,46.60
2018-07-03T21:22:31.814Z,47.00
2018-07-03T21:25:00.166Z,46.90
2018-07-03T21:27:28.633Z,47.60
2018-07-03T21:29:56.993Z,47.20
2018-07-03T21:32:25.361Z,47.60
2018-07-03T21:34:53.791Z,47.90
2018-07-03T21:37:22.279Z,47.60
2018-07-03T21:39:50.784Z,48.10
2018-07-03T21:42:19.201Z,48.10
2018-07-03T21:44:47.578Z,48.30
2018-07-03T21:47:16.084Z,48.70
2018-07-03T21:49:44.431Z,48.90
2018-07-03T21:52:12.850Z,48.80
2018-07-03T21:54:41.312Z,49.00
2018-07-03T21:57:09.940Z,49.00
2018-07-03T21:59:38.346Z,49.20
2018-07-03T22:02:06.757Z,49.50
2018-07-03T22:04:35.605Z,49.40
2018-07-03T22:07:04.013Z,49.80
2018-07-03T22:09:32.403Z,50.00
2018-07-03T22:12:00.802Z,50.40
2018-07-03T22:14:29.175Z,50.00
2018-07-03T22:16:57.620Z,50.00
2018-07-03T22:19:26.006Z,50.20
2018-07-03T22:21:54.416Z,50.50
2018-07-03T22:24:22.797Z,50.70
2018-07-03T22:26:51.205Z,50.60
2018-07-03T22:29:19.589Z,51.10
2018-07-03T22:34:16.822Z,51.20
2018-07-03T22:36:45.171Z,51.20
2018-07-03T22:39:13.625Z,51.10
2018-07-03T22:41:41.992Z,51.20
2018-07-03T22:44:10.504Z,51.50
2018-07-03T22:46:38.873Z,51.50
2018-07-03T22:51:35.375Z,51.80
2018-07-03T22:54:03.762Z,51.80
2018-07-03T22:56:32.118Z,51.90
2018-07-03T22:59:00.646Z,51.60
2018-07-03T23:01:29.093Z,51.70
2018-07-03T23:03:57.588Z,51.90
2018-07-03T23:06:26.040Z,52.00
2018-07-03T23:08:55.095Z,52.00
2018-07-03T23:11:23.557Z,52.10
2018-07-03T23:13:52.201Z,52.50
2018-07-03T23:16:20.596Z,52.40
2018-07-03T23:18:48.949Z,52.40
2018-07-03T23:21:17.320Z,52.40
2018-07-03T23:23:45.722Z,52.30
2018-07-03T23:26:14.121Z,52.30
2018-07-03T23:28:42.487Z,52.30
2018-07-03T23:31:10.918Z,52.40
2018-07-03T23:33:39.258Z,52.40
2018-07-03T23:36:07.707Z,52.30
2018-07-03T23:41:04.164Z,52.40
2018-07-03T23:46:00.405Z,52.80
2018-07-03T23:48:40.014Z,52.90
2018-07-03T23:51:20.645Z,53.20
2018-07-03T23:54:00.397Z,53.10
2018-07-03T23:56:40.416Z,52.90
2018-07-03T23:59:20.154Z,53.10
